sensor_id;sensor_type;location;lat;lon;timestamp;pressure;altitude;pressure_sealevel;temperature;humidity
10310;BME280;5200;43.236;27.986;2023-08-21T00:01:02;99892.22;;;25.84;36.49
10310;BME280;5200;43.236;27.986;2023-08-21T00:03:29;99904.78;;;25.90;36.39
10310;BME280;5200;43.236;27.986;2023-08-21T00:05:56;99898.81;;;25.88;35.83
10310;BME280;5200;43.236;27.986;2023-08-21T00:08:23;99909.75;;;25.98;35.49
10310;BME280;5200;43.236;27.986;2023-08-21T00:10:51;99895.38;;;25.92;35.33
10310;BME280;5200;43.236;27.986;2023-08-21T00:13:18;99912.09;;;26.06;34.88
10310;BME280;5200;43.236;27.986;2023-08-21T00:15:45;99911.09;;;26.12;35.15
10310;BME280;5200;43.236;27.986;2023-08-21T00:18:14;99914.88;;;26.11;35.21
10310;BME280;5200;43.236;27.986;2023-08-21T00:20:42;99906.78;;;26.11;34.88
10310;BME280;5200;43.236;27.986;2023-08-21T00:23:09;99901.31;;;26.06;34.77
10310;BME280;5200;43.236;27.986;2023-08-21T00:25:36;99900.81;;;26.09;34.52
10310;BME280;5200;43.236;27.986;2023-08-21T00:28:04;99881.50;;;26.01;34.54
10310;BME280;5200;43.236;27.986;2023-08-21T00:30:32;99904.41;;;26.15;34.30
10310;BME280;5200;43.236;27.986;2023-08-21T00:32:59;99907.34;;;26.13;34.24
10310;BME280;5200;43.236;27.986;2023-08-21T00:35:27;99911.66;;;26.14;34.41
10310;BME280;5200;43.236;27.986;2023-08-21T00:37:54;99893.28;;;26.11;35.00
10310;BME280;5200;43.236;27.986;2023-08-21T00:40:21;99881.69;;;25.94;35.11
10310;BME280;5200;43.236;27.986;2023-08-21T00:42:48;99882.13;;;25.91;35.27
10310;BME280;5200;43.236;27.986;2023-08-21T00:45:16;99902.25;;;26.00;35.31
10310;BME280;5200;43.236;27.986;2023-08-21T00:47:43;99888.34;;;25.91;35.34
10310;BME280;5200;43.236;27.986;2023-08-21T00:50:10;99892.47;;;25.94;35.84
10310;BME280;5200;43.236;27.986;2023-08-21T00:52:43;99905.34;;;25.92;36.33
10310;BME280;5200;43.236;27.986;2023-08-21T00:55:12;99903.50;;;25.81;36.58
10310;BME280;5200;43.236;27.986;2023-08-21T00:57:39;99905.06;;;25.65;37.51
10310;BME280;5200;43.236;27.986;2023-08-21T01:00:08;99903.88;;;25.61;37.81
10310;BME280;5200;43.236;27.986;2023-08-21T01:02:36;99909.75;;;25.58;38.59
10310;BME280;5200;43.236;27.986;2023-08-21T01:05:04;99882.09;;;25.34;38.73
10310;BME280;5200;43.236;27.986;2023-08-21T01:07:36;99899.50;;;25.43;39.13
10310;BME280;5200;43.236;27.986;2023-08-21T01:10:11;99873.31;;;25.26;39.29
10310;BME280;5200;43.236;27.986;2023-08-21T01:12:46;99903.81;;;25.44;39.78
10310;BME280;5200;43.236;27.986;2023-08-21T01:15:17;99904.78;;;25.38;39.67
10310;BME280;5200;43.236;27.986;2023-08-21T01:17:46;99898.81;;;25.36;39.99
10310;BME280;5200;43.236;27.986;2023-08-21T01:20:14;99908.03;;;25.40;39.70
10310;BME280;5200;43.236;27.986;2023-08-21T01:22:43;99902.09;;;25.38;39.79
10310;BME280;5200;43.236;27.986;2023-08-21T01:25:15;99905.59;;;25.38;39.96
10310;BME280;5200;43.236;27.986;2023-08-21T01:27:45;99883.50;;;25.24;40.23
10310;BME280;5200;43.236;27.986;2023-08-21T01:30:13;99896.84;;;25.31;39.92
10310;BME280;5200;43.236;27.986;2023-08-21T01:32:49;99886.78;;;25.26;39.29
10310;BME280;5200;43.236;27.986;2023-08-21T01:35:19;99908.16;;;25.45;39.36
10310;BME280;5200;43.236;27.986;2023-08-21T01:37:47;99913.06;;;25.48;39.16
10310;BME280;5200;43.236;27.986;2023-08-21T01:40:21;99907.09;;;25.46;39.61
10310;BME280;5200;43.236;27.986;2023-08-21T01:42:48;99872.72;;;25.24;39.22
10310;BME280;5200;43.236;27.986;2023-08-21T01:45:15;99895.66;;;25.39;39.23
10310;BME280;5200;43.236;27.986;2023-08-21T01:47:42;99907.59;;;25.43;39.41
10310;BME280;5200;43.236;27.986;2023-08-21T01:50:10;99910.88;;;25.45;39.40
10310;BME280;5200;43.236;27.986;2023-08-21T01:52:37;99890.50;;;25.25;39.64
10310;BME280;5200;43.236;27.986;2023-08-21T01:55:05;99877.63;;;25.16;39.20
10310;BME280;5200;43.236;27.986;2023-08-21T01:57:37;99881.13;;;25.16;39.26
10310;BME280;5200;43.236;27.986;2023-08-21T02:00:05;99901.50;;;25.36;39.30
10310;BME280;5200;43.236;27.986;2023-08-21T02:02:32;99906.53;;;25.44;39.61
10310;BME280;5200;43.236;27.986;2023-08-21T02:05:00;99851.31;;;25.06;39.69
10310;BME280;5200;43.236;27.986;2023-08-21T02:07:31;99875.91;;;25.21;39.84
10310;BME280;5200;43.236;27.986;2023-08-21T02:09:59;99880.72;;;25.19;39.92
10310;BME280;5200;43.236;27.986;2023-08-21T02:12:29;99838.09;;;24.93;39.70
10310;BME280;5200;43.236;27.986;2023-08-21T02:14:57;99889.81;;;25.18;39.70
10310;BME280;5200;43.236;27.986;2023-08-21T02:17:29;99888.41;;;25.27;39.86
10310;BME280;5200;43.236;27.986;2023-08-21T02:20:00;99885.63;;;25.22;39.75
10310;BME280;5200;43.236;27.986;2023-08-21T02:22:30;99848.75;;;24.99;40.13
10310;BME280;5200;43.236;27.986;2023-08-21T02:24:57;99842.56;;;24.99;40.13
10310;BME280;5200;43.236;27.986;2023-08-21T02:27:24;99901.84;;;25.39;40.64
10310;BME280;5200;43.236;27.986;2023-08-21T02:29:51;99879.75;;;25.25;40.07
10310;BME280;5200;43.236;27.986;2023-08-21T02:32:20;99854.59;;;25.20;40.35
10310;BME280;5200;43.236;27.986;2023-08-21T02:34:47;99870.63;;;25.26;40.06
10310;BME280;5200;43.236;27.986;2023-08-21T02:37:23;99863.84;;;25.12;40.22
10310;BME280;5200;43.236;27.986;2023-08-21T02:39:51;99850.97;;;25.14;39.78
10310;BME280;5200;43.236;27.986;2023-08-21T02:42:18;99849.31;;;25.13;39.67
10310;BME280;5200;43.236;27.986;2023-08-21T02:44:45;99858.78;;;25.16;39.83
10310;BME280;5200;43.236;27.986;2023-08-21T02:47:12;99905.94;;;25.42;39.56
10310;BME280;5200;43.236;27.986;2023-08-21T02:49:42;99898.22;;;25.45;39.72
10310;BME280;5200;43.236;27.986;2023-08-21T02:52:09;99885.94;;;25.38;40.18
10310;BME280;5200;43.236;27.986;2023-08-21T02:54:39;99901.03;;;25.39;41.04
10310;BME280;5200;43.236;27.986;2023-08-21T02:57:08;99920.09;;;25.37;41.34
10310;BME280;5200;43.236;27.986;2023-08-21T02:59:36;99916.97;;;25.28;41.91
10310;BME280;5200;43.236;27.986;2023-08-21T03:02:04;99884.44;;;24.95;42.32
10310;BME280;5200;43.236;27.986;2023-08-21T03:04:31;99918.00;;;25.04;43.81
10310;BME280;5200;43.236;27.986;2023-08-21T03:07:07;99906.56;;;24.85;44.41
10310;BME280;5200;43.236;27.986;2023-08-21T03:09:39;99900.13;;;24.74;45.61
10310;BME280;5200;43.236;27.986;2023-08-21T03:12:11;99915.81;;;24.77;46.21
10310;BME280;5200;43.236;27.986;2023-08-21T03:14:38;99931.25;;;24.70;46.84
10310;BME280;5200;43.236;27.986;2023-08-21T03:17:06;99910.88;;;24.51;47.35
10310;BME280;5200;43.236;27.986;2023-08-21T03:19:34;99901.47;;;24.41;48.38
10310;BME280;5200;43.236;27.986;2023-08-21T03:22:07;99899.81;;;24.40;49.27
10310;BME280;5200;43.236;27.986;2023-08-21T03:24:34;99906.84;;;24.41;49.19
10310;BME280;5200;43.236;27.986;2023-08-21T03:27:04;99925.81;;;24.46;49.79
10310;BME280;5200;43.236;27.986;2023-08-21T03:29:31;99909.84;;;24.33;50.62
10310;BME280;5200;43.236;27.986;2023-08-21T03:31:58;99920.84;;;24.43;50.74
10310;BME280;5200;43.236;27.986;2023-08-21T03:34:28;99904.47;;;24.33;51.48
10310;BME280;5200;43.236;27.986;2023-08-21T03:37:08;99936.47;;;24.53;51.74
10310;BME280;5200;43.236;27.986;2023-08-21T03:39:36;99915.22;;;24.33;52.46
10310;BME280;5200;43.236;27.986;2023-08-21T03:42:04;99938.91;;;24.55;52.78
10310;BME280;5200;43.236;27.986;2023-08-21T03:44:32;99903.56;;;24.39;52.52
10310;BME280;5200;43.236;27.986;2023-08-21T03:46:59;99917.88;;;24.52;52.96
10310;BME280;5200;43.236;27.986;2023-08-21T03:49:34;99913.78;;;24.61;53.38
10310;BME280;5200;43.236;27.986;2023-08-21T03:52:01;99913.78;;;24.61;53.21
10310;BME280;5200;43.236;27.986;2023-08-21T03:54:29;99864.25;;;24.38;52.39
10310;BME280;5200;43.236;27.986;2023-08-21T03:56:57;99914.84;;;24.83;51.35
10310;BME280;5200;43.236;27.986;2023-08-21T03:59:27;99939.47;;;25.22;50.72
10310;BME280;5200;43.236;27.986;2023-08-21T04:01:54;99890.06;;;25.05;49.87
10310;BME280;5200;43.236;27.986;2023-08-21T04:04:22;99930.75;;;25.44;50.16
10310;BME280;5200;43.236;27.986;2023-08-21T04:07:05;99948.16;;;25.65;50.14
10310;BME280;5200;43.236;27.986;2023-08-21T04:09:36;99952.47;;;25.78;49.63
10310;BME280;5200;43.236;27.986;2023-08-21T04:12:06;99956.44;;;25.87;49.36
10310;BME280;5200;43.236;27.986;2023-08-21T04:14:34;99954.53;;;25.99;49.46
10310;BME280;5200;43.236;27.986;2023-08-21T04:17:04;99961.28;;;26.13;48.47
10310;BME280;5200;43.236;27.986;2023-08-21T04:19:31;99916.03;;;26.15;48.04
10310;BME280;5200;43.236;27.986;2023-08-21T04:21:59;99950.75;;;26.58;47.78
10310;BME280;5200;43.236;27.986;2023-08-21T04:24:27;99931.78;;;26.69;46.73
10310;BME280;5200;43.236;27.986;2023-08-21T04:26:56;99958.00;;;27.08;46.18
10310;BME280;5200;43.236;27.986;2023-08-21T04:29:25;99901.34;;;26.91;45.08
10310;BME280;5200;43.236;27.986;2023-08-21T04:31:57;99894.25;;;27.07;44.50
10310;BME280;5200;43.236;27.986;2023-08-21T04:34:24;99923.97;;;27.46;43.63
10310;BME280;5200;43.236;27.986;2023-08-21T04:37:00;99921.84;;;27.70;43.61
10310;BME280;5200;43.236;27.986;2023-08-21T04:39:30;99884.75;;;27.65;42.65
10310;BME280;5200;43.236;27.986;2023-08-21T04:42:02;99948.13;;;28.23;42.96
10310;BME280;5200;43.236;27.986;2023-08-21T04:44:30;99927.03;;;28.25;42.77
10310;BME280;5200;43.236;27.986;2023-08-21T04:47:22;99944.66;;;28.55;42.20
10310;BME280;5200;43.236;27.986;2023-08-21T04:49:51;99933.56;;;28.57;42.20
10310;BME280;5200;43.236;27.986;2023-08-21T04:52:18;99933.13;;;28.70;41.35
10310;BME280;5200;43.236;27.986;2023-08-21T04:54:47;99895.09;;;28.55;41.47
10310;BME280;5200;43.236;27.986;2023-08-21T04:57:16;99927.88;;;28.91;41.30
10310;BME280;5200;43.236;27.986;2023-08-21T04:59:44;99959.16;;;29.14;41.40
10310;BME280;5200;43.236;27.986;2023-08-21T05:02:11;99962.75;;;29.19;41.31
10310;BME280;5200;43.236;27.986;2023-08-21T05:04:48;99910.88;;;29.00;40.87
10310;BME280;5200;43.236;27.986;2023-08-21T05:07:34;99910.88;;;29.00;41.02
10310;BME280;5200;43.236;27.986;2023-08-21T05:10:02;99910.66;;;29.07;41.40
10310;BME280;5200;43.236;27.986;2023-08-21T05:12:32;99937.63;;;29.34;40.89
10310;BME280;5200;43.236;27.986;2023-08-21T05:15:01;99905.56;;;29.21;41.08
10310;BME280;5200;43.236;27.986;2023-08-21T05:17:30;99959.22;;;29.71;40.78
10310;BME280;5200;43.236;27.986;2023-08-21T05:19:57;99965.53;;;29.92;40.11
10310;BME280;5200;43.236;27.986;2023-08-21T05:22:27;99917.22;;;29.84;38.77
10310;BME280;5200;43.236;27.986;2023-08-21T05:25:02;99942.28;;;30.22;38.64
10310;BME280;5200;43.236;27.986;2023-08-21T05:27:38;99916.78;;;30.28;38.23
10310;BME280;5200;43.236;27.986;2023-08-21T05:33:09;99968.94;;;30.92;36.25
10310;BME280;5200;43.236;27.986;2023-08-21T05:35:37;99959.16;;;30.91;35.81
10310;BME280;5200;43.236;27.986;2023-08-21T05:38:10;99962.41;;;30.98;36.16
10310;BME280;5200;43.236;27.986;2023-08-21T05:40:37;99954.75;;;31.15;35.30
10310;BME280;5200;43.236;27.986;2023-08-21T05:43:09;99953.13;;;31.20;35.29
10310;BME280;5200;43.236;27.986;2023-08-21T05:45:36;99933.63;;;31.02;35.73
10310;BME280;5200;43.236;27.986;2023-08-21T05:48:17;99960.72;;;31.17;34.98
10310;BME280;5200;43.236;27.986;2023-08-21T05:50:56;99956.94;;;31.24;35.10
10310;BME280;5200;43.236;27.986;2023-08-21T05:53:41;99946.28;;;31.32;35.04
10310;BME280;5200;43.236;27.986;2023-08-21T05:56:35;99972.81;;;31.71;34.57
10310;BME280;5200;43.236;27.986;2023-08-21T05:59:26;99978.75;;;31.84;35.15
10310;BME280;5200;43.236;27.986;2023-08-21T06:01:53;99987.41;;;32.01;34.86
10310;BME280;5200;43.236;27.986;2023-08-21T06:04:20;99989.34;;;32.35;34.76
10310;BME280;5200;43.236;27.986;2023-08-21T06:06:51;99977.41;;;32.70;33.11
10310;BME280;5200;43.236;27.986;2023-08-21T06:09:17;99982.56;;;33.06;33.23
10310;BME280;5200;43.236;27.986;2023-08-21T06:11:44;99979.56;;;33.32;31.12
10310;BME280;5200;43.236;27.986;2023-08-21T06:14:12;99983.72;;;33.48;30.98
10310;BME280;5200;43.236;27.986;2023-08-21T06:16:39;99993.63;;;33.68;31.00
10310;BME280;5200;43.236;27.986;2023-08-21T06:19:06;100005.50;;;33.77;30.57
10310;BME280;5200;43.236;27.986;2023-08-21T06:21:34;100005.28;;;33.74;30.81
10310;BME280;5200;43.236;27.986;2023-08-21T06:24:01;100000.28;;;33.81;30.73
10310;BME280;5200;43.236;27.986;2023-08-21T06:26:28;99999.69;;;33.84;30.76
10310;BME280;5200;43.236;27.986;2023-08-21T06:28:54;100015.94;;;33.94;30.74
10310;BME280;5200;43.236;27.986;2023-08-21T06:31:23;100014.19;;;34.03;30.61
10310;BME280;5200;43.236;27.986;2023-08-21T06:33:49;100010.72;;;34.17;30.13
10310;BME280;5200;43.236;27.986;2023-08-21T06:36:16;100013.91;;;34.24;29.85
10310;BME280;5200;43.236;27.986;2023-08-21T06:38:43;100011.78;;;34.21;29.87
10310;BME280;5200;43.236;27.986;2023-08-21T06:41:10;100011.53;;;34.17;29.99
10310;BME280;5200;43.236;27.986;2023-08-21T06:43:37;100023.56;;;34.35;30.02
10310;BME280;5200;43.236;27.986;2023-08-21T06:46:04;100012.63;;;34.54;29.43
10310;BME280;5200;43.236;27.986;2023-08-21T06:48:32;100017.56;;;34.71;29.29
10310;BME280;5200;43.236;27.986;2023-08-21T06:50:59;100022.41;;;34.93;29.84
10310;BME280;5200;43.236;27.986;2023-08-21T06:53:27;100022.81;;;35.19;31.48
10310;BME280;5200;43.236;27.986;2023-08-21T06:55:55;100015.63;;;35.51;30.19
10310;BME280;5200;43.236;27.986;2023-08-21T06:58:22;100015.53;;;35.56;28.07
10310;BME280;5200;43.236;27.986;2023-08-21T07:00:48;100018.75;;;35.58;30.81
10310;BME280;5200;43.236;27.986;2023-08-21T07:03:15;100016.44;;;35.65;30.19
10310;BME280;5200;43.236;27.986;2023-08-21T07:05:53;100021.41;;;35.91;28.46
10310;BME280;5200;43.236;27.986;2023-08-21T07:08:20;100025.16;;;35.67;27.21
10310;BME280;5200;43.236;27.986;2023-08-21T07:10:47;100025.69;;;35.69;27.60
10310;BME280;5200;43.236;27.986;2023-08-21T07:13:14;100018.34;;;35.51;27.75
10310;BME280;5200;43.236;27.986;2023-08-21T07:15:41;100025.97;;;35.54;28.47
10310;BME280;5200;43.236;27.986;2023-08-21T07:18:07;100022.25;;;35.77;28.15
10310;BME280;5200;43.236;27.986;2023-08-21T07:20:34;100014.81;;;35.92;27.58
10310;BME280;5200;43.236;27.986;2023-08-21T07:23:03;100016.69;;;36.05;27.65
10310;BME280;5200;43.236;27.986;2023-08-21T07:25:30;100025.84;;;36.14;26.96
10310;BME280;5200;43.236;27.986;2023-08-21T07:27:57;100008.09;;;36.12;27.16
10310;BME280;5200;43.236;27.986;2023-08-21T07:30:24;100010.41;;;36.05;27.49
10310;BME280;5200;43.236;27.986;2023-08-21T07:32:52;100016.69;;;36.05;27.09
10310;BME280;5200;43.236;27.986;2023-08-21T07:35:19;100016.31;;;35.98;27.61
10310;BME280;5200;43.236;27.986;2023-08-21T07:37:47;100016.91;;;36.23;27.64
10310;BME280;5200;43.236;27.986;2023-08-21T07:40:15;100015.66;;;36.29;26.81
10310;BME280;5200;43.236;27.986;2023-08-21T07:42:42;100004.34;;;36.44;27.32
10310;BME280;5200;43.236;27.986;2023-08-21T07:45:09;100012.78;;;36.70;26.79
10310;BME280;5200;43.236;27.986;2023-08-21T07:47:37;100008.53;;;36.64;27.43
10310;BME280;5200;43.236;27.986;2023-08-21T07:50:04;100007.97;;;36.53;26.71
10310;BME280;5200;43.236;27.986;2023-08-21T07:52:32;100015.38;;;36.53;26.39
10310;BME280;5200;43.236;27.986;2023-08-21T07:54:59;100016.03;;;36.36;26.14
10310;BME280;5200;43.236;27.986;2023-08-21T07:57:27;100003.34;;;36.17;26.29
10310;BME280;5200;43.236;27.986;2023-08-21T07:59:54;100026.22;;;36.22;26.25
10310;BME280;5200;43.236;27.986;2023-08-21T08:02:21;100020.38;;;36.14;25.71
10310;BME280;5200;43.236;27.986;2023-08-21T08:04:48;100007.00;;;35.99;25.69
10310;BME280;5200;43.236;27.986;2023-08-21T08:07:15;100006.28;;;35.93;27.32
10310;BME280;5200;43.236;27.986;2023-08-21T08:09:42;100012.31;;;35.68;27.70
10310;BME280;5200;43.236;27.986;2023-08-21T08:12:09;100008.25;;;35.65;27.44
10310;BME280;5200;43.236;27.986;2023-08-21T08:14:37;100017.97;;;35.57;26.96
10310;BME280;5200;43.236;27.986;2023-08-21T08:17:04;100014.53;;;35.52;27.85
10310;BME280;5200;43.236;27.986;2023-08-21T08:19:31;100017.97;;;35.57;26.62
10310;BME280;5200;43.236;27.986;2023-08-21T08:21:58;100018.28;;;35.56;26.62
10310;BME280;5200;43.236;27.986;2023-08-21T08:24:25;100017.75;;;35.40;25.50
10310;BME280;5200;43.236;27.986;2023-08-21T08:26:53;100016.91;;;35.12;25.67
10310;BME280;5200;43.236;27.986;2023-08-21T08:29:19;100008.81;;;35.34;25.78
10310;BME280;5200;43.236;27.986;2023-08-21T08:31:47;100012.50;;;35.71;24.48
10310;BME280;5200;43.236;27.986;2023-08-21T08:34:16;100007.25;;;35.75;25.12
10310;BME280;5200;43.236;27.986;2023-08-21T08:36:45;100000.22;;;35.55;24.49
10310;BME280;5200;43.236;27.986;2023-08-21T08:39:12;100001.94;;;35.37;24.97
10310;BME280;5200;43.236;27.986;2023-08-21T08:41:44;100005.31;;;35.01;26.30
10310;BME280;5200;43.236;27.986;2023-08-21T08:44:15;99999.56;;;35.03;25.87
10310;BME280;5200;43.236;27.986;2023-08-21T08:46:42;100000.94;;;34.86;26.00
10310;BME280;5200;43.236;27.986;2023-08-21T08:49:11;99993.34;;;34.97;26.59
10310;BME280;5200;43.236;27.986;2023-08-21T08:51:39;99989.66;;;35.07;26.63
10310;BME280;5200;43.236;27.986;2023-08-21T08:54:09;99997.44;;;35.00;25.79
10310;BME280;5200;43.236;27.986;2023-08-21T08:56:35;100001.16;;;35.04;26.27
10310;BME280;5200;43.236;27.986;2023-08-21T08:59:03;99984.19;;;35.21;25.60
10310;BME280;5200;43.236;27.986;2023-08-21T09:01:31;99984.81;;;35.31;26.83
10310;BME280;5200;43.236;27.986;2023-08-21T09:03:57;99985.53;;;35.51;25.63
10310;BME280;5200;43.236;27.986;2023-08-21T09:06:25;99971.78;;;35.28;25.98
10310;BME280;5200;43.236;27.986;2023-08-21T09:08:53;99983.53;;;35.43;25.44
10310;BME280;5200;43.236;27.986;2023-08-21T09:11:21;99982.72;;;35.42;25.71
10310;BME280;5200;43.236;27.986;2023-08-21T09:13:49;99984.72;;;35.36;25.84
10310;BME280;5200;43.236;27.986;2023-08-21T09:16:17;99984.53;;;35.47;25.36
10310;BME280;5200;43.236;27.986;2023-08-21T09:18:47;99981.06;;;35.27;26.30
10310;BME280;5200;43.236;27.986;2023-08-21T09:21:16;99984.41;;;35.24;25.71
10310;BME280;5200;43.236;27.986;2023-08-21T09:23:44;99975.41;;;35.38;25.93
10310;BME280;5200;43.236;27.986;2023-08-21T09:26:18;99986.53;;;35.55;26.10
10310;BME280;5200;43.236;27.986;2023-08-21T09:28:46;99967.63;;;35.45;25.58
10310;BME280;5200;43.236;27.986;2023-08-21T09:31:13;99989.38;;;35.36;26.23
10310;BME280;5200;43.236;27.986;2023-08-21T09:33:40;99979.81;;;35.06;26.08
10310;BME280;5200;43.236;27.986;2023-08-21T09:36:09;99978.53;;;35.17;26.69
10310;BME280;5200;43.236;27.986;2023-08-21T09:38:38;99973.19;;;35.26;26.13
10310;BME280;5200;43.236;27.986;2023-08-21T09:41:07;99978.44;;;35.22;26.57
10310;BME280;5200;43.236;27.986;2023-08-21T09:43:41;99970.75;;;35.24;26.35
10310;BME280;5200;43.236;27.986;2023-08-21T09:46:08;99976.22;;;35.38;25.88
10310;BME280;5200;43.236;27.986;2023-08-21T09:48:35;99972.69;;;35.51;26.32
10310;BME280;5200;43.236;27.986;2023-08-21T09:51:03;99974.44;;;35.61;26.29
10310;BME280;5200;43.236;27.986;2023-08-21T09:53:30;99978.44;;;35.50;26.68
10310;BME280;5200;43.236;27.986;2023-08-21T09:55:58;99975.41;;;35.38;26.03
10310;BME280;5200;43.236;27.986;2023-08-21T09:58:30;99981.78;;;35.19;25.57
10310;BME280;5200;43.236;27.986;2023-08-21T10:00:58;99982.19;;;35.12;26.34
10310;BME280;5200;43.236;27.986;2023-08-21T10:03:25;99974.41;;;35.33;26.34
10310;BME280;5200;43.236;27.986;2023-08-21T10:05:55;99971.84;;;35.51;26.15
10310;BME280;5200;43.236;27.986;2023-08-21T10:08:24;99972.47;;;35.48;26.00
10310;BME280;5200;43.236;27.986;2023-08-21T10:10:52;99969.72;;;35.48;25.94
10310;BME280;5200;43.236;27.986;2023-08-21T10:13:19;99970.75;;;35.24;26.23
10310;BME280;5200;43.236;27.986;2023-08-21T10:15:47;99969.59;;;34.98;25.79
10310;BME280;5200;43.236;27.986;2023-08-21T10:18:18;99973.38;;;34.83;26.45
10310;BME280;5200;43.236;27.986;2023-08-21T10:20:45;99977.75;;;34.84;26.42
10310;BME280;5200;43.236;27.986;2023-08-21T10:23:24;99971.50;;;34.83;26.51
10310;BME280;5200;43.236;27.986;2023-08-21T10:25:54;99972.41;;;34.60;26.08
10310;BME280;5200;43.236;27.986;2023-08-21T10:28:21;99965.47;;;34.67;25.74
10310;BME280;5200;43.236;27.986;2023-08-21T10:30:50;99968.28;;;34.95;26.31
10310;BME280;5200;43.236;27.986;2023-08-21T10:33:17;99964.34;;;35.15;25.73
10310;BME280;5200;43.236;27.986;2023-08-21T10:35:45;99957.19;;;35.19;25.38
10310;BME280;5200;43.236;27.986;2023-08-21T10:38:13;99962.66;;;35.19;24.69
10310;BME280;5200;43.236;27.986;2023-08-21T10:43:38;99970.50;;;34.93;24.73
10310;BME280;5200;43.236;27.986;2023-08-21T10:46:07;99949.03;;;35.00;25.52
10310;BME280;5200;43.236;27.986;2023-08-21T10:48:34;99949.88;;;35.14;24.82
10310;BME280;5200;43.236;27.986;2023-08-21T10:51:03;99958.91;;;35.43;25.15
10310;BME280;5200;43.236;27.986;2023-08-21T10:53:31;99958.19;;;35.23;24.79
10310;BME280;5200;43.236;27.986;2023-08-21T10:56:01;99961.97;;;34.94;25.38
10310;BME280;5200;43.236;27.986;2023-08-21T10:58:28;99965.81;;;34.93;25.46
10310;BME280;5200;43.236;27.986;2023-08-21T11:00:58;99960.22;;;34.85;27.58
10310;BME280;5200;43.236;27.986;2023-08-21T11:03:27;99959.34;;;34.89;30.85
10310;BME280;5200;43.236;27.986;2023-08-21T11:06:01;99955.91;;;34.98;35.28
10310;BME280;5200;43.236;27.986;2023-08-21T11:08:28;99955.44;;;35.09;34.68
10310;BME280;5200;43.236;27.986;2023-08-21T11:10:55;99950.75;;;35.10;35.20
10310;BME280;5200;43.236;27.986;2023-08-21T11:13:23;99956.91;;;35.02;35.98
10310;BME280;5200;43.236;27.986;2023-08-21T11:15:57;99943.44;;;34.91;36.36
10310;BME280;5200;43.236;27.986;2023-08-21T11:18:31;99957.66;;;34.61;35.41
10310;BME280;5200;43.236;27.986;2023-08-21T11:21:05;99951.19;;;34.19;38.44
10310;BME280;5200;43.236;27.986;2023-08-21T11:23:34;99957.16;;;34.21;40.19
10310;BME280;5200;43.236;27.986;2023-08-21T11:26:01;99959.59;;;34.03;33.94
10310;BME280;5200;43.236;27.986;2023-08-21T11:28:30;99951.47;;;33.98;36.54
10310;BME280;5200;43.236;27.986;2023-08-21T11:30:58;99961.69;;;34.12;37.67
10310;BME280;5200;43.236;27.986;2023-08-21T11:33:26;99953.09;;;33.99;43.06
10310;BME280;5200;43.236;27.986;2023-08-21T11:35:55;99958.56;;;33.99;35.92
10310;BME280;5200;43.236;27.986;2023-08-21T11:38:23;99956.38;;;33.77;40.32
10310;BME280;5200;43.236;27.986;2023-08-21T11:40:55;99962.59;;;33.83;39.09
10310;BME280;5200;43.236;27.986;2023-08-21T11:43:22;99960.66;;;33.64;43.56
10310;BME280;5200;43.236;27.986;2023-08-21T11:45:49;99955.66;;;33.72;40.04
10310;BME280;5200;43.236;27.986;2023-08-21T11:48:19;99961.03;;;33.77;41.51
10310;BME280;5200;43.236;27.986;2023-08-21T11:50:48;99958.13;;;33.92;41.56
10310;BME280;5200;43.236;27.986;2023-08-21T11:53:31;99961.22;;;34.04;46.40
10310;BME280;5200;43.236;27.986;2023-08-21T11:55:57;99963.94;;;34.04;54.38
10310;BME280;5200;43.236;27.986;2023-08-21T11:58:26;99968.28;;;34.05;55.68
10310;BME280;5200;43.236;27.986;2023-08-21T12:00:53;99959.66;;;33.98;58.15
10310;BME280;5200;43.236;27.986;2023-08-21T12:03:20;99962.81;;;34.05;57.32
10310;BME280;5200;43.236;27.986;2023-08-21T12:05:47;99966.38;;;34.06;56.30
10310;BME280;5200;43.236;27.986;2023-08-21T12:08:13;99960.16;;;34.00;53.70
10310;BME280;5200;43.236;27.986;2023-08-21T12:10:42;99973.16;;;34.08;46.37
10310;BME280;5200;43.236;27.986;2023-08-21T12:13:08;99967.56;;;34.19;45.52
10310;BME280;5200;43.236;27.986;2023-08-21T12:15:35;99964.53;;;34.01;46.26
10310;BME280;5200;43.236;27.986;2023-08-21T12:18:03;99965.03;;;33.84;45.14
10310;BME280;5200;43.236;27.986;2023-08-21T12:20:30;99973.56;;;33.54;46.86
10310;BME280;5200;43.236;27.986;2023-08-21T12:22:56;99970.03;;;33.53;49.39
10310;BME280;5200;43.236;27.986;2023-08-21T12:25:23;99969.06;;;33.20;54.73
10310;BME280;5200;43.236;27.986;2023-08-21T12:27:51;99963.94;;;33.13;52.50
10310;BME280;5200;43.236;27.986;2023-08-21T12:30:18;99972.25;;;32.98;50.31
10310;BME280;5200;43.236;27.986;2023-08-21T12:32:45;99975.69;;;32.79;49.22
10310;BME280;5200;43.236;27.986;2023-08-21T12:35:12;99971.38;;;32.73;50.93
10310;BME280;5200;43.236;27.986;2023-08-21T12:37:39;99969.34;;;32.55;50.73
10310;BME280;5200;43.236;27.986;2023-08-21T12:40:07;99973.78;;;32.40;54.09
10310;BME280;5200;43.236;27.986;2023-08-21T12:42:34;99969.91;;;32.12;55.76
10310;BME280;5200;43.236;27.986;2023-08-21T12:45:02;99975.16;;;31.93;57.50
10310;BME280;5200;43.236;27.986;2023-08-21T12:47:30;99974.16;;;31.74;58.60
10310;BME280;5200;43.236;27.986;2023-08-21T12:49:58;99980.19;;;31.66;58.81
10310;BME280;5200;43.236;27.986;2023-08-21T12:52:25;99957.94;;;31.53;60.04
10310;BME280;5200;43.236;27.986;2023-08-21T12:54:51;99969.94;;;31.42;62.07
10310;BME280;5200;43.236;27.986;2023-08-21T12:57:18;99972.41;;;31.18;64.66
10310;BME280;5200;43.236;27.986;2023-08-21T12:59:45;99974.91;;;30.94;66.62
10310;BME280;5200;43.236;27.986;2023-08-21T13:02:13;99964.06;;;30.89;60.08
10310;BME280;5200;43.236;27.986;2023-08-21T13:04:40;99975.97;;;31.03;61.74
10310;BME280;5200;43.236;27.986;2023-08-21T13:07:07;99972.69;;;31.11;61.62
10310;BME280;5200;43.236;27.986;2023-08-21T13:09:33;99970.53;;;31.08;62.21
10310;BME280;5200;43.236;27.986;2023-08-21T13:12:00;99970.25;;;31.15;62.15